Weather at Grande View Lodge Heliport

Public forecast

Using degrees Fahrenheit for public forecast. Weather courtesy of forecast.io.

Closest aviation weather report (METAR) to Grande View Lodge Heliport

Closest report is Lake Charles Regional Airport, 20.4 nm (37.8 km) NW. Retrieved 2020/10/30 10:26 UTC (0 seconds ago):

KLCH 301026Z AUTO 03012G18KT 10SM OVC019 11/08 A3017 RMK AO2 T01060078

Closest aviation forecast (TAF) to Grande View Lodge Heliport

Closest forecast is Lake Charles Regional Airport, 20.4 nm (37.8 km) NW. Retrieved 2020/10/30 06:22 UTC (4 hours ago):

TAF KCDS 300520Z 3006/3106 VRB06KT P6SM FEW250 TAF KLCH 300520Z 3006/3106 34013KT P6SM OVC025 FM301000 01010KT P6SM SCT030 FM301500 04014G22KT P6SM SKC